Latest Weather Observations for Territory Grape Farm

IDD60801

Issued at 4:31 pm CST Thursday 27 April 2017 (issued every 30 minutes, with the page automatically refreshed every 10 minutes)

About weather observations | Map of weather stations | Latest weather observations for NT | Other Formats
Station Details ID: 015643 Name: TERRITORY GRAPE FARM Lat: -22.45 Lon: 133.64 Height: 565.6 m
Data from the previous 72 hours. | See also: Recent months at Territory Grape Farm
Date/Time
CST
Temp
°C
App
Temp
°C
Dew
Point
°C
Rel
Hum
%
Delta-T
°C
Wind Press
QNH
hPa
Press
MSL
hPa
Rain since
9am
mm
Dir  Spd
km/h
Gust
km/h
Spd
kts
Gust
kts
27/04:30pm 23.4 17.0 -1.5 19 11.3 SE 22 30 12 16 1020.7 1017.9 -
27/04:00pm 23.7 17.7 -1.3 19 11.4 SE 20 32 11 17 1020.6 1017.8 -
27/03:30pm 23.9 17.6 -1.1 19 11.5 SE 22 32 12 17 1020.7 1017.9 -
27/03:00pm 23.7 18.1 0.1 21 11.1 SE 19 24 10 13 1021.0 1018.2 -
27/02:30pm 23.0 16.3 1.4 24 10.3 SE 26 39 14 21 1021.2 1018.4 -
27/02:00pm 22.4 16.5 2.0 26 9.8 SE 22 37 12 20 1021.6 1018.8 -
27/01:30pm 22.5 17.1 1.5 25 10.0 SE 19 30 10 16 1022.3 1019.5 -
27/01:00pm 21.1 15.2 1.4 27 9.3 SE 22 35 12 19 1022.5 1019.7 -
27/12:30pm 21.0 15.4 1.3 27 9.2 SE 20 37 11 20 1022.9 1020.1 -
27/12:00pm 19.7 13.8 1.7 30 8.4 SE 22 32 12 17 1023.4 1020.6 -
27/11:30am 19.6 13.1 2.5 32 8.1 SE 26 35 14 19 1023.9 1021.1 -
27/11:00am 19.0 12.9 2.8 34 7.7 SE 24 37 13 20 1024.3 1021.5 -
27/10:30am 17.8 11.7 2.9 37 7.0 SE 24 35 13 19 1024.5 1021.7 -
27/10:00am 16.8 10.8 3.5 41 6.3 SE 24 35 13 19 1024.6 1021.8 -
27/09:30am 15.4 9.8 3.5 45 5.6 SSE 22 32 12 17 1024.7 1021.9 -
27/09:00am 15.2 9.7 4.0 47 5.3 SE 22 35 12 19 1024.5 1021.7 -
27/08:30am 14.4 8.9 3.8 49 5.0 SE 22 32 12 17 1024.0 1021.2 -
27/08:00am 13.7 8.6 4.0 52 4.6 SE 20 30 11 16 1023.6 1020.9 -
27/07:30am 11.9 9.0 4.6 61 3.4 SE 9 15 5 8 1023.5 1020.7 -
27/07:00am 9.9 6.6 4.3 68 2.6 SSE 11 13 6 7 1023.1 1020.3 -
27/06:30am 10.8 7.5 4.7 66 2.8 SSE 11 15 6 8 1022.8 1020.0 -
27/06:00am 10.7 8.4 4.8 67 2.7 SSE 6 7 3 4 1022.6 1019.8 -
27/05:30am 11.3 8.5 5.0 65 3.0 SSE 9 11 5 6 1022.3 1019.5 -
27/05:00am 12.1 9.2 4.8 61 3.4 SSE 9 13 5 7 1022.1 1019.3 -
27/04:30am 12.8 9.9 4.8 58 3.8 SSE 9 13 5 7 1022.1 1019.3 -
27/04:00am 13.9 10.3 5.0 55 4.3 SSE 13 17 7 9 1022.0 1019.1 -
27/03:30am 15.1 11.3 5.6 53 4.7 SSE 15 22 8 12 1022.1 1019.3 -
27/03:00am 15.6 11.0 5.5 51 5.0 SSE 19 24 10 13 1022.2 1019.4 -
27/02:30am 15.2 11.5 4.3 48 5.2 SE 13 20 7 11 1022.2 1019.4 -
27/02:00am 15.3 11.6 4.7 49 5.1 SE 13 19 7 10 1022.5 1019.7 -
27/01:30am 15.5 12.1 3.9 46 5.5 SE 11 15 6 8 1022.7 1019.9 -
27/01:00am 16.3 12.2 4.4 45 5.8 SE 15 20 8 11 1023.0 1020.2 -
27/12:30am 16.3 12.9 4.0 44 5.9 SE 11 15 6 8 1023.3 1020.5 -
27/12:00am 17.6 13.1 4.2 41 6.5 SE 17 24 9 13 1023.5 1020.7 -
 
Date/Time
CST
Temp
°C
App
Temp
°C
Dew
Point
°C
Rel
Hum
%
Delta-T
°C
Wind Press
QNH
hPa
Press
MSL
hPa
Rain since
9am
mm
Dir  Spd
km/h
Gust
km/h
Spd
kts
Gust
kts
26/11:30pm 18.0 13.2 4.6 41 6.6 SE 19 28 10 15 1023.5 1020.7 -
26/11:00pm 17.7 13.9 3.9 40 6.7 SE 13 17 7 9 1023.6 1020.9 -
26/10:30pm 17.8 14.0 3.7 39 6.8 SE 13 19 7 10 1023.4 1020.6 -
26/10:00pm 18.0 14.4 3.1 37 7.1 SE 11 15 6 8 1023.2 1020.4 -
26/09:30pm 18.8 14.5 3.0 35 7.5 SE 15 20 8 11 1022.9 1020.1 -
26/09:00pm 19.1 15.1 2.9 34 7.7 SE 13 19 7 10 1022.4 1019.6 -
26/08:30pm 19.7 15.7 3.0 33 8.0 SE 13 19 7 10 1022.1 1019.3 -
26/08:00pm 20.6 15.9 2.9 31 8.6 SE 17 20 9 11 1021.3 1018.5 -
26/07:30pm 21.3 16.7 3.5 31 8.7 SE 17 24 9 13 1020.9 1018.1 -
26/07:00pm 21.6 17.4 3.8 31 8.8 SE 15 20 8 11 1020.4 1017.5 -
26/06:30pm 22.5 18.1 4.5 31 9.1 SE 17 20 9 11 1019.7 1016.9 -
26/06:00pm 23.6 18.9 5.0 30 9.5 SE 19 26 10 14 1019.3 1016.5 -
26/05:30pm 24.7 20.1 5.5 29 10.0 SE 19 26 10 14 1019.0 1016.2 -
26/05:00pm 25.4 20.7 6.1 29 10.2 ESE 20 28 11 15 1018.8 1015.9 -
26/04:30pm 25.9 21.5 6.5 29 10.4 SE 19 28 10 15 1018.6 1015.7 -
26/04:00pm 26.1 22.6 7.2 30 10.3 SE 15 26 8 14 1018.6 1015.7 -
26/03:30pm 26.4 22.2 7.4 30 10.3 ESE 19 32 10 17 1018.7 1015.8 -
26/03:00pm 26.2 22.3 7.3 30 10.3 ESE 17 28 9 15 1018.7 1015.8 -
26/02:30pm 26.2 22.6 8.2 32 9.9 SE 17 32 9 17 1018.8 1015.9 -
26/02:00pm 26.1 21.9 8.1 32 9.9 ESE 20 32 11 17 1019.1 1016.3 -
26/01:30pm 25.1 20.4 7.7 33 9.5 SE 22 33 12 18 1019.4 1016.6 -
26/01:00pm 24.8 20.6 8.3 35 9.1 SE 20 35 11 19 1019.9 1017.1 -
26/12:30pm 24.4 20.2 8.4 36 8.8 SE 20 33 11 18 1020.4 1017.5 -
26/12:00pm 24.0 19.6 8.8 38 8.4 SE 22 32 12 17 1020.7 1017.9 -
26/11:30am 22.5 17.7 9.0 42 7.4 SE 24 37 13 20 1021.3 1018.5 -
26/11:00am 22.2 17.8 9.0 43 7.2 SE 22 32 12 17 1021.6 1018.8 -
26/10:30am 21.8 18.1 10.0 47 6.6 SE 20 30 11 16 1021.7 1018.9 -
26/10:00am 20.8 17.2 10.0 50 6.0 ESE 19 26 10 14 1021.7 1018.9 -
26/09:30am 20.1 16.3 9.9 52 5.6 SSE 20 30 11 16 1021.7 1018.9 -
26/09:00am 19.4 15.7 10.1 55 5.1 SSE 20 30 11 16 1021.6 1018.8 -
26/08:30am 19.4 15.7 10.1 55 5.1 SE 20 30 11 16 1021.3 1018.5 -
26/08:00am 18.5 14.7 9.8 57 4.7 SSE 20 30 11 16 1021.2 1018.4 -
26/07:30am 18.1 14.9 10.0 59 4.4 SSE 17 20 9 11 1020.9 1018.1 -
26/07:00am 17.9 14.3 9.8 59 4.4 SSE 19 24 10 13 1020.5 1017.7 -
26/06:30am 18.6 14.8 9.9 57 4.7 SSE 20 28 11 15 1020.2 1017.3 -
26/06:00am 18.9 14.8 10.2 57 4.8 SSE 22 30 12 16 1020.1 1017.2 -
26/05:30am 19.1 14.7 10.4 57 4.8 SSE 24 35 13 19 1019.7 1016.9 -
26/05:00am 19.7 15.4 10.7 56 5.0 SSE 24 35 13 19 1019.6 1016.8 -
26/04:30am 19.8 16.7 11.6 59 4.6 SSE 19 28 10 15 1019.3 1016.5 -
26/04:00am 19.4 18.1 12.4 64 4.0 SSE 11 22 6 12 1019.2 1016.4 -
26/03:30am 19.6 18.0 12.8 65 3.9 SSE 13 19 7 10 1019.1 1016.3 -
26/03:00am 20.2 18.0 13.4 65 4.0 SSE 17 24 9 13 1019.0 1016.2 -
26/02:30am 20.6 18.0 13.3 63 4.3 SSE 19 30 10 16 1019.0 1016.2 -
26/02:00am 20.9 18.4 13.6 63 4.3 SSE 19 30 10 16 1018.8 1015.9 -
26/01:30am 20.8 20.1 14.2 66 3.9 SE 11 17 6 9 1019.0 1016.2 -
26/01:00am 21.6 20.2 14.5 64 4.3 SE 15 19 8 10 1019.2 1016.4 -
26/12:30am 22.3 20.6 14.7 62 4.6 SE 17 30 9 16 1018.9 1016.1 -
26/12:00am 22.7 21.3 14.5 60 4.9 SSE 15 20 8 11 1018.8 1015.9 -
 
Date/Time
CST
Temp
°C
App
Temp
°C
Dew
Point
°C
Rel
Hum
%
Delta-T
°C
Wind Press
QNH
hPa
Press
MSL
hPa
Rain since
9am
mm
Dir  Spd
km/h
Gust
km/h
Spd
kts
Gust
kts
25/11:30pm 23.1 22.1 14.7 59 5.1 SSE 13 19 7 10 1018.8 1015.9 -
25/11:00pm 23.4 21.8 14.9 59 5.2 SSE 17 20 9 11 1018.6 1015.7 -
25/10:30pm 22.4 23.0 16.7 70 3.6 SE 9 13 5 7 1018.8 1015.9 -
25/10:00pm 22.9 23.1 16.7 68 3.9 ESE 11 13 6 7 1018.6 1015.7 -
25/09:30pm 23.3 23.7 16.4 65 4.3 ESE 9 15 5 8 1018.7 1015.8 -
25/09:00pm 24.1 24.5 16.4 62 4.8 E 9 13 5 7 1018.4 1015.5 -
25/08:30pm 25.0 24.7 16.4 59 5.4 E 13 19 7 10 1017.8 1015.0 -
25/08:00pm 26.3 25.7 15.7 52 6.6 E 13 19 7 10 1017.2 1014.3 -
25/07:30pm 27.9 25.6 13.1 40 8.9 SSE 17 22 9 12 1016.5 1013.6 -
25/07:00pm 27.8 26.5 12.6 39 9.1 SSE 11 17 6 9 1015.7 1012.9 -
25/06:30pm 28.7 27.0 12.6 37 9.7 SSE 13 17 7 9 1015.1 1012.2 -
25/06:00pm 29.7 28.0 12.6 35 10.3 S 13 20 7 11 1014.9 1012.0 -
25/05:30pm 31.1 29.8 12.5 32 11.3 S 11 19 6 10 1014.6 1011.7 -
25/05:00pm 31.6 29.9 12.4 31 11.6 S 13 20 7 11 1014.2 1011.4 -
25/04:30pm 31.8 30.9 12.6 31 11.7 SSW 9 15 5 8 1014.0 1011.1 -
25/04:00pm 32.1 30.5 12.8 30 11.8 SW 13 19 7 10 1013.9 1011.0 -
25/03:30pm 32.7 30.9 13.4 31 11.9 SSW 15 26 8 14 1013.8 1010.9 -
25/03:00pm 31.3 30.4 13.6 34 10.9 SW 11 22 6 12 1013.9 1011.0 -
25/02:30pm 32.4 31.8 13.6 32 11.6 SW 9 20 5 11 1014.0 1011.1 -
25/02:00pm 32.5 32.1 14.1 32 11.5 S 9 17 5 9 1014.2 1011.4 -
25/01:30pm 32.2 31.9 14.3 33 11.2 WSW 9 32 5 17 1014.7 1011.8 -
25/01:00pm 31.8 32.1 14.9 36 10.6 SW 7 15 4 8 1015.3 1012.4 -
25/12:30pm 30.9 31.2 14.5 37 10.2 SE 6 13 3 7 1015.8 1013.0 -
25/12:00pm 30.5 31.0 15.0 39 9.7 SE 6 11 3 6 1016.4 1013.5 -
25/11:30am 29.7 29.9 14.7 40 9.3 S 7 15 4 8 1016.8 1013.9 -
25/11:00am 28.6 28.6 15.2 44 8.4 S 9 17 5 9 1017.3 1014.5 -
25/10:30am 27.9 28.2 15.9 48 7.5 SSE 9 17 5 9 1017.5 1014.7 -
25/10:00am 26.9 26.4 15.9 51 6.9 SE 13 17 7 9 1017.6 1014.8 -
25/09:30am 25.6 24.8 16.2 56 5.9 SSE 15 22 8 12 1017.5 1014.7 -
25/09:00am 24.4 23.1 15.9 59 5.3 S 17 24 9 13 1017.5 1014.7 -
25/08:30am 23.6 23.4 15.6 61 4.9 S 11 19 6 10 1017.2 1014.3 -
25/08:00am 22.7 22.4 15.5 64 4.4 S 11 19 6 10 1017.1 1014.2 -
25/07:30am 22.1 22.1 15.2 65 4.2 S 9 13 5 7 1016.8 1013.9 -
25/07:00am 22.3 22.3 15.2 64 4.3 SSE 9 15 5 8 1016.3 1013.4 -
25/06:30am 22.7 22.5 14.8 61 4.8 S 9 13 5 7 1015.8 1013.0 -
25/06:00am 23.1 22.9 14.7 59 5.1 S 9 15 5 8 1015.4 1012.5 -
25/05:30am 23.8 22.8 14.5 56 5.6 SSE 13 19 7 10 1015.1 1012.2 -
25/05:00am 24.0 22.9 14.4 55 5.8 S 13 19 7 10 1015.2 1012.3 -
25/04:30am 23.6 23.3 14.3 56 5.6 SSW 9 15 5 8 1015.4 1012.5 -
25/04:00am 24.2 23.7 14.9 56 5.7 SSW 11 19 6 10 1015.3 1012.4 -
25/03:30am 23.4 23.3 16.0 63 4.6 SW 11 13 6 7 1015.4 1012.5 -
25/03:00am 23.6 23.4 16.6 65 4.4 SSW 13 19 7 10 1015.4 1012.5 -
25/02:30am 22.3 21.9 18.1 77 2.7 WSW 17 20 9 11 1015.7 1012.9 -
25/02:00am 23.8 22.1 16.3 63 4.7 W 20 28 11 15 1016.0 1013.2 -
25/01:30am 25.6 25.1 12.8 45 7.6 NW 7 11 4 6 1015.2 1012.3 -
25/01:00am 25.5 26.3 12.4 44 7.7 CALM 0 0 0 0 1015.3 1012.4 -
25/12:30am 26.7 26.2 12.0 40 8.7 NNE 6 7 3 4 1015.4 1012.5 -
25/12:00am 27.3 26.0 12.5 40 8.8 N 11 15 6 8 1015.7 1012.9 -
 
Date/Time
CST
Temp
°C
App
Temp
°C
Dew
Point
°C
Rel
Hum
%
Delta-T
°C
Wind Press
QNH
hPa
Press
MSL
hPa
Rain since
9am
mm
Dir  Spd
km/h
Gust
km/h
Spd
kts
Gust
kts
24/11:30pm 26.3 25.3 12.4 42 8.2 NNW 9 15 5 8 1016.0 1013.2 -
24/11:00pm 25.6 25.4 11.7 42 8.1 WSW 4 6 2 3 1016.4 1013.5 -
24/10:30pm 25.7 24.7 12.2 43 7.9 SW 9 13 5 7 1016.4 1013.5 -
24/10:00pm 24.4 24.0 12.4 47 7.1 N 6 7 3 4 1016.3 1013.4 -
24/09:30pm 24.3 23.8 11.9 45 7.2 N 6 6 3 3 1016.4 1013.5 -
24/09:00pm 24.7 24.1 11.6 44 7.6 NNE 6 6 3 3 1016.1 1013.3 -
24/08:30pm 24.2 23.5 11.5 45 7.3 NNE 6 6 3 3 1015.9 1013.1 -
24/08:00pm 23.7 23.1 10.4 43 7.5 NE 4 4 2 2 1015.6 1012.7 -
24/07:30pm 24.3 24.4 10.2 41 8.0 CALM 0 0 0 0 1015.3 1012.4 -
24/07:00pm 26.1 26.0 9.5 35 9.4 CALM 0 0 0 0 1015.0 1012.1 -
24/06:30pm 28.0 27.6 9.8 32 10.4 NNW 2 4 1 2 1014.8 1011.9 -
24/06:00pm 30.6 29.9 10.0 28 12.0 NNW 4 4 2 2 1014.6 1011.7 -
24/05:30pm 31.7 30.0 9.8 26 12.7 WNW 9 13 5 7 1014.5 1011.6 -
24/05:00pm 32.6 30.6 10.0 25 13.2 NW 11 17 6 9 1014.4 1011.5 -

Other Formats:

Comma delimited format used in spreadsheet applications
http://www.bom.gov.au/fwo/IDD60801/IDD60801.94328.axf

JavaScript Object Notation format (JSON) in row-major order
http://www.bom.gov.au/fwo/IDD60801/IDD60801.94328.json